Time;durP1;ratioP1;P1;durP2;ratioP2;P2;SDS_P1;SDS_P2;PMS_P1;PMS_P2;Temp;Humidity;BMP_temperature;BMP_pressure;BME280_temperature;BME280_humidity;BME280_pressure;Samples;Min_cycle;Max_cycle;Signal;HPM_P1;HPM_P2
2022/05/06 00:01:34;;;;;;;;;;;;;;;;;;5058115;28;19905;-42
2022/05/06 00:03:59;;;;;;;;;;;;;;;;;;5057485;28;19916;-44
2022/05/06 00:06:24;;;;;;;;;;;;;;;;;;5057745;28;19920;-44
2022/05/06 00:08:49;;;;;;;;;;;;;;;;;;5057834;28;19916;-43
2022/05/06 00:11:15;;;;;;;;;;;;;;;;;;5057622;28;20340;-44
2022/05/06 00:13:40;;;;;;;;;;;;;;;;;;5057253;28;19931;-43
2022/05/06 00:16:05;;;;;;;;;;;;;;;;;;5057718;28;19923;-43
2022/05/06 00:18:33;;;;;;;;;;;;;;;;;;5057548;28;19915;-42
2022/05/06 00:20:58;;;;;;;;;;;;;;;;;;5057792;28;19909;-43
2022/05/06 00:23:23;;;;;;;;;;;;;;;;;;5057492;28;19920;-42
2022/05/06 00:25:48;;;;;;;;;;;;;;;;;;5057381;28;19944;-42
2022/05/06 00:28:13;;;;;;;;;;;;;;;;;;5057513;28;19967;-43
2022/05/06 00:30:38;;;;;;;;;;;;;;;;;;5057322;28;20460;-42
2022/05/06 00:33:05;;;;;;;;;;;;;;;;;;5057481;28;19948;-43
2022/05/06 00:35:30;;;;;;;;;;;;;;;;;;5057005;28;19924;-43
2022/05/06 00:37:55;;;;;;;;;;;;;;;;;;5057327;28;19909;-43
2022/05/06 00:40:20;;;;;;;;;;;;;;;;;;5057085;28;20429;-42
2022/05/06 00:42:45;;;;;;;;;;;;;;;;;;5057104;28;19909;-43
2022/05/06 00:45:12;;;;;;;;;;;;;;;;;;5056915;28;19917;-44
2022/05/06 00:47:37;;;;;;;;;;;;;;;;;;5057096;28;19992;-42
2022/05/06 00:50:02;;;;;;;;;;;;;;;;;;5057108;28;19947;-43
2022/05/06 00:52:27;;;;;;;;;;;;;;;;;;5056896;28;19960;-43
2022/05/06 00:54:52;;;;;;;;;;;;;;;;;;5056554;28;20371;-43
2022/05/06 00:57:18;;;;;;;;;;;;;;;;;;5056886;28;20287;-43
2022/05/06 01:02:26;;;;;;;;;;;;;;;;;;5056946;28;19958;-43
2022/05/06 01:04:52;;;;;;;;;;;;;;;;;;5056535;28;19916;-43
2022/05/06 01:07:17;;;;;;;;;;;;;;;;;;5056942;28;20348;-42
2022/05/06 01:09:42;;;;;;;;;;;;;;;;;;5056865;28;19913;-42
2022/05/06 01:12:07;;;;;;;;;;;;;;;;;;5057261;28;19994;-43
2022/05/06 01:14:32;;;;;;;;;;;;;;;;;;5056396;28;19963;-42
2022/05/06 01:16:57;;;;;;;;;;;;;;;;;;5056580;28;20013;-42
2022/05/06 01:19:22;;;;;;;;;;;;;;;;;;5056355;28;19917;-43
2022/05/06 01:21:47;;;;;;;;;;;;;;;;;;5056550;28;20348;-42
2022/05/06 01:24:13;;;;;;;;;;;;;;;;;;5056326;28;20225;-43
2022/05/06 01:26:38;;;;;;;;;;;;;;;;;;5056254;28;19919;-42
2022/05/06 01:29:03;;;;;;;;;;;;;;;;;;5057764;22;19932;-42
2022/05/06 01:31:28;;;;;;;;;;;;;;;;;;5036420;28;19909;-42
2022/05/06 01:33:56;;;;;;;;;;;;;;;;;;5036313;28;19909;-44
2022/05/06 01:36:22;;;;;;;;;;;;;;;;;;5035992;28;19924;-43
2022/05/06 01:38:49;;;;;;;;;;;;;;;;;;5036360;28;19944;-43
2022/05/06 01:41:15;;;;;;;;;;;;;;;;;;5036145;28;19909;-42
2022/05/06 01:43:42;;;;;;;;;;;;;;;;;;5036282;28;20372;-44
2022/05/06 01:46:07;;;;;;;;;;;;;;;;;;5035995;28;19959;-44
2022/05/06 01:48:32;;;;;;;;;;;;;;;;;;5036087;28;19996;-42
2022/05/06 01:50:57;;;;;;;;;;;;;;;;;;5035892;28;19916;-42
2022/05/06 01:53:24;;;;;;;;;;;;;;;;;;5035965;28;19920;-43
2022/05/06 01:55:49;;;;;;;;;;;;;;;;;;5050809;28;19960;-43
2022/05/06 01:58:14;;;;;;;;;;;;;;;;;;5035662;28;20391;-43
2022/05/06 02:00:39;;;;;;;;;;;;;;;;;;5035750;28;19905;-43
2022/05/06 02:03:05;;;;;;;;;;;;;;;;;;5035941;28;19955;-42
2022/05/06 02:05:30;;;;;;;;;;;;;;;;;;5035458;28;20283;-42
2022/05/06 02:07:55;;;;;;;;;;;;;;;;;;5042966;28;19984;-42
2022/05/06 02:10:20;;;;;;;;;;;;;;;;;;5055583;28;19995;-42
2022/05/06 02:12:45;;;;;;;;;;;;;;;;;;5055552;28;20003;-42
2022/05/06 02:15:11;;;;;;;;;;;;;;;;;;5054729;28;20016;-42
2022/05/06 02:17:37;;;;;;;;;;;;;;;;;;5055209;28;20011;-42
2022/05/06 02:20:04;;;;;;;;;;;;;;;;;;5055442;28;19920;-42
2022/05/06 02:22:29;;;;;;;;;;;;;;;;;;5054982;28;20426;-42
2022/05/06 02:24:57;;;;;;;;;;;;;;;;;;5054790;28;19920;-43
2022/05/06 02:27:22;;;;;;;;;;;;;;;;;;5054755;28;19913;-43
2022/05/06 02:35:15;;;;;;;;;;;;;;;;;;5054894;28;20271;-42
2022/05/06 02:37:40;;;;;;;;;;;;;;;;;;5055326;28;20356;-42
2022/05/06 02:40:06;;;;;;;;;;;;;;;;;;5055190;28;19917;-42
2022/05/06 02:42:31;;;;;;;;;;;;;;;;;;5054930;28;19908;-42
2022/05/06 02:44:56;;;;;;;;;;;;;;;;;;5054693;28;19913;-42
2022/05/06 02:47:22;;;;;;;;;;;;;;;;;;5054591;28;19913;-42
2022/05/06 02:49:47;;;;;;;;;;;;;;;;;;5055070;28;20322;-43
2022/05/06 02:52:12;;;;;;;;;;;;;;;;;;5054769;28;20224;-43
2022/05/06 02:54:37;;;;;;;;;;;;;;;;;;5054417;28;19908;-42
2022/05/06 02:57:02;;;;;;;;;;;;;;;;;;5054860;28;19913;-43
2022/05/06 02:59:28;;;;;;;;;;;;;;;;;;5054648;28;19927;-42
2022/05/06 03:01:53;;;;;;;;;;;;;;;;;;5054713;28;19916;-43
2022/05/06 03:04:18;;;;;;;;;;;;;;;;;;5054884;28;19916;-44
2022/05/06 03:06:44;;;;;;;;;;;;;;;;;;5054623;28;20360;-45
2022/05/06 03:09:09;;;;;;;;;;;;;;;;;;5054746;28;19908;-42
2022/05/06 03:11:35;;;;;;;;;;;;;;;;;;5055018;28;20370;-43
2022/05/06 03:14:00;;;;;;;;;;;;;;;;;;5054569;28;19951;-42
2022/05/06 03:16:25;;;;;;;;;;;;;;;;;;5054251;28;19962;-42
2022/05/06 03:18:50;;;;;;;;;;;;;;;;;;5054557;28;20011;-42
2022/05/06 03:21:15;;;;;;;;;;;;;;;;;;5054708;28;19954;-42
2022/05/06 03:23:40;;;;;;;;;;;;;;;;;;5054477;28;19931;-42
2022/05/06 03:26:05;;;;;;;;;;;;;;;;;;5054140;28;19912;-42
2022/05/06 03:28:31;;;;;;;;;;;;;;;;;;5054383;28;19909;-44
2022/05/06 03:30:57;;;;;;;;;;;;;;;;;;5054616;28;19909;-42
2022/05/06 03:33:22;;;;;;;;;;;;;;;;;;5055557;28;19952;-42
2022/05/06 03:35:47;;;;;;;;;;;;;;;;;;5058197;28;19917;-42
2022/05/06 03:38:13;;;;;;;;;;;;;;;;;;5058801;28;19909;-42
2022/05/06 03:40:38;;;;;;;;;;;;;;;;;;5058603;28;20265;-42
2022/05/06 03:43:03;;;;;;;;;;;;;;;;;;5058697;28;19909;-44
2022/05/06 03:45:28;;;;;;;;;;;;;;;;;;5058224;28;19913;-44
2022/05/06 03:47:54;;;;;;;;;;;;;;;;;;5058681;28;19913;-44
2022/05/06 03:53:03;;;;;;;;;;;;;;;;;;5058311;28;20383;-44
2022/05/06 03:55:28;;;;;;;;;;;;;;;;;;5057816;28;19917;-43
2022/05/06 03:57:53;;;;;;;;;;;;;;;;;;5058059;28;20003;-44
2022/05/06 04:00:22;;;;;;;;;;;;;;;;;;5057489;28;19916;-45
2022/05/06 04:02:47;;;;;;;;;;;;;;;;;;5056765;28;20284;-44
2022/05/06 04:05:12;;;;;;;;;;;;;;;;;;5057746;28;19921;-44
2022/05/06 04:07:37;;;;;;;;;;;;;;;;;;5057871;28;19963;-43
2022/05/06 04:10:02;;;;;;;;;;;;;;;;;;5058068;28;19908;-45
2022/05/06 04:12:28;;;;;;;;;;;;;;;;;;5057953;28;19913;-42
2022/05/06 04:14:53;;;;;;;;;;;;;;;;;;5057623;28;19912;-42
2022/05/06 04:17:20;;;;;;;;;;;;;;;;;;5057718;28;19999;-43
2022/05/06 04:25:14;;;;;;;;;;;;;;;;;;5057823;28;19915;-42
2022/05/06 04:27:40;;;;;;;;;;;;;;;;;;5057928;28;20276;-42
2022/05/06 04:30:05;;;;;;;;;;;;;;;;;;5057383;28;20332;-44
2022/05/06 04:32:30;;;;;;;;;;;;;;;;;;5057523;28;19909;-44
2022/05/06 04:34:55;;;;;;;;;;;;;;;;;;5057083;28;19970;-43
2022/05/06 04:37:21;;;;;;;;;;;;;;;;;;5057360;28;19913;-42
2022/05/06 04:39:46;;;;;;;;;;;;;;;;;;5057406;28;19959;-42
2022/05/06 04:42:11;;;;;;;;;;;;;;;;;;5057593;28;19955;-43
2022/05/06 04:44:36;;;;;;;;;;;;;;;;;;5056413;28;19911;-42
2022/05/06 04:47:01;;;;;;;;;;;;;;;;;;5057110;28;20022;-42
2022/05/06 04:49:26;;;;;;;;;;;;;;;;;;5057169;28;20364;-43
2022/05/06 04:51:51;;;;;;;;;;;;;;;;;;5057169;28;20272;-42
2022/05/06 04:54:16;;;;;;;;;;;;;;;;;;5057060;28;19909;-43
2022/05/06 04:56:41;;;;;;;;;;;;;;;;;;5056661;28;19920;-44
2022/05/06 04:59:07;;;;;;;;;;;;;;;;;;5056861;28;19917;-42
2022/05/06 05:01:32;;;;;;;;;;;;;;;;;;5057258;28;19909;-42
2022/05/06 05:03:59;;;;;;;;;;;;;;;;;;5056987;28;19909;-43
2022/05/06 05:06:24;;;;;;;;;;;;;;;;;;5056772;28;19913;-42
2022/05/06 05:08:49;;;;;;;;;;;;;;;;;;5056987;28;19967;-42
2022/05/06 05:11:15;;;;;;;;;;;;;;;;;;5056726;28;19909;-42
2022/05/06 05:13:40;;;;;;;;;;;;;;;;;;5056571;28;20375;-42
2022/05/06 05:16:05;;;;;;;;;;;;;;;;;;5056363;28;19928;-43
2022/05/06 05:18:31;;;;;;;;;;;;;;;;;;5056658;28;19913;-42
2022/05/06 05:20:56;;;;;;;;;;;;;;;;;;5056569;28;20272;-42
2022/05/06 05:23:21;;;;;;;;;;;;;;;;;;5056443;28;19913;-42
2022/05/06 05:25:46;;;;;;;;;;;;;;;;;;5056142;28;19912;-43
2022/05/06 05:28:11;;;;;;;;;;;;;;;;;;5056161;28;19913;-42
2022/05/06 05:30:36;;;;;;;;;;;;;;;;;;5056095;28;19921;-42
2022/05/06 05:33:01;;;;;;;;;;;;;;;;;;5056106;28;19913;-42
2022/05/06 05:35:27;;;;;;;;;;;;;;;;;;5055779;28;19917;-43
2022/05/06 05:37:52;;;;;;;;;;;;;;;;;;5056349;28;19913;-43
2022/05/06 05:40:17;;;;;;;;;;;;;;;;;;5056592;28;19904;-43
2022/05/06 05:42:42;;;;;;;;;;;;;;;;;;5056163;28;19953;-42
2022/05/06 05:50:35;;;;;;;;;;;;;;;;;;5056112;28;19915;-45
2022/05/06 05:53:02;;;;;;;;;;;;;;;;;;5055778;28;19909;-44
2022/05/06 05:55:27;;;;;;;;;;;;;;;;;;5055239;28;20016;-44
2022/05/06 05:57:52;;;;;;;;;;;;;;;;;;5056030;28;19951;-44
2022/05/06 06:00:17;;;;;;;;;;;;;;;;;;5055807;28;19963;-42
2022/05/06 06:02:42;;;;;;;;;;;;;;;;;;5055872;28;19916;-42
2022/05/06 06:05:07;;;;;;;;;;;;;;;;;;5055560;28;20440;-43
2022/05/06 06:07:32;;;;;;;;;;;;;;;;;;5055719;28;19948;-44
2022/05/06 06:09:57;;;;;;;;;;;;;;;;;;5055767;28;19948;-44
2022/05/06 06:12:22;;;;;;;;;;;;;;;;;;5055627;28;19957;-43
2022/05/06 06:14:48;;;;;;;;;;;;;;;;;;5055082;28;19909;-45
2022/05/06 06:17:13;;;;;;;;;;;;;;;;;;5055629;28;19962;-43
2022/05/06 06:19:38;;;;;;;;;;;;;;;;;;5055882;28;19952;-44
2022/05/06 06:22:03;;;;;;;;;;;;;;;;;;5055409;28;19959;-44
2022/05/06 06:24:28;;;;;;;;;;;;;;;;;;5055306;28;20308;-44
2022/05/06 06:26:53;;;;;;;;;;;;;;;;;;5055366;28;19933;-44
2022/05/06 06:29:18;;;;;;;;;;;;;;;;;;5055258;28;19921;-44
2022/05/06 06:31:43;;;;;;;;;;;;;;;;;;5055286;28;19909;-45
2022/05/06 06:34:08;;;;;;;;;;;;;;;;;;5055316;28;19915;-45
2022/05/06 06:36:34;;;;;;;;;;;;;;;;;;5054870;28;19917;-45
2022/05/06 06:38:59;;;;;;;;;;;;;;;;;;5055174;28;19909;-44
2022/05/06 06:41:24;;;;;;;;;;;;;;;;;;5055075;28;19913;-45
2022/05/06 06:43:49;;;;;;;;;;;;;;;;;;5055053;28;19909;-44
2022/05/06 06:46:15;;;;;;;;;;;;;;;;;;5054559;28;20024;-43
2022/05/06 06:48:41;;;;;;;;;;;;;;;;;;5055357;28;19909;-44
2022/05/06 06:51:06;;;;;;;;;;;;;;;;;;5055186;28;19913;-44
2022/05/06 06:53:31;;;;;;;;;;;;;;;;;;5054892;28;19919;-43
2022/05/06 06:55:56;;;;;;;;;;;;;;;;;;5054374;28;19923;-44
2022/05/06 06:58:21;;;;;;;;;;;;;;;;;;5054666;28;20477;-44
2022/05/06 07:00:46;;;;;;;;;;;;;;;;;;5055062;28;19908;-44
2022/05/06 07:03:11;;;;;;;;;;;;;;;;;;5054721;28;20015;-44
2022/05/06 07:05:37;;;;;;;;;;;;;;;;;;5054436;28;20010;-44
2022/05/06 07:13:30;;;;;;;;;;;;;;;;;;5054763;28;20016;-44
2022/05/06 07:15:55;;;;;;;;;;;;;;;;;;5054018;28;19960;-45
2022/05/06 07:18:20;;;;;;;;;;;;;;;;;;5054227;28;20379;-44
2022/05/06 07:20:45;;;;;;;;;;;;;;;;;;5054492;28;19928;-45
2022/05/06 07:23:10;;;;;;;;;;;;;;;;;;5054657;28;19905;-44
2022/05/06 07:25:35;;;;;;;;;;;;;;;;;;5054207;28;19913;-44
2022/05/06 07:28:00;;;;;;;;;;;;;;;;;;5054329;28;19913;-46
2022/05/06 07:30:26;;;;;;;;;;;;;;;;;;5054192;28;19924;-44
2022/05/06 07:32:51;;;;;;;;;;;;;;;;;;5054395;28;19970;-44
2022/05/06 07:35:16;;;;;;;;;;;;;;;;;;5053985;28;19988;-44
2022/05/06 07:37:41;;;;;;;;;;;;;;;;;;5054231;28;19944;-43
2022/05/06 07:40:09;;;;;;;;;;;;;;;;;;5054166;28;19946;-41
2022/05/06 07:42:34;;;;;;;;;;;;;;;;;;5054282;28;19909;-42
2022/05/06 07:44:59;;;;;;;;;;;;;;;;;;5054203;28;19909;-44
2022/05/06 07:47:24;;;;;;;;;;;;;;;;;;5054053;28;19913;-43
2022/05/06 07:49:49;;;;;;;;;;;;;;;;;;5054199;28;20007;-45
2022/05/06 07:52:14;;;;;;;;;;;;;;;;;;5054213;28;20003;-44
2022/05/06 07:54:39;;;;;;;;;;;;;;;;;;5054163;28;19909;-44
2022/05/06 07:57:05;;;;;;;;;;;;;;;;;;5053968;28;19917;-44
2022/05/06 07:59:30;;;;;;;;;;;;;;;;;;5054026;28;19909;-44
2022/05/06 08:04:41;;;;;;;;;;;;;;;;;;5032009;28;19915;-44
2022/05/06 08:07:06;;;;;;;;;;;;;;;;;;5031323;28;20004;-45
2022/05/06 08:09:31;;;;;;;;;;;;;;;;;;5031828;28;20000;-46
2022/05/06 08:11:56;;;;;;;;;;;;;;;;;;5021813;28;19917;-44
2022/05/06 08:14:21;;;;;;;;;;;;;;;;;;5012405;28;19914;-44
2022/05/06 08:16:46;;;;;;;;;;;;;;;;;;5043840;28;19979;-44
2022/05/06 08:19:11;;;;;;;;;;;;;;;;;;5054749;28;19952;-45
2022/05/06 08:21:36;;;;;;;;;;;;;;;;;;5057648;28;19905;-45
2022/05/06 08:24:02;;;;;;;;;;;;;;;;;;5057570;28;19913;-44
2022/05/06 08:26:27;;;;;;;;;;;;;;;;;;5057452;28;19913;-45
2022/05/06 08:28:52;;;;;;;;;;;;;;;;;;5057077;28;19917;-45
2022/05/06 08:31:17;;;;;;;;;;;;;;;;;;5057474;28;20326;-45
2022/05/06 08:33:42;;;;;;;;;;;;;;;;;;5057283;28;19912;-44
2022/05/06 08:36:08;;;;;;;;;;;;;;;;;;5057012;28;19917;-44
2022/05/06 08:38:33;;;;;;;;;;;;;;;;;;5057349;28;19916;-44
2022/05/06 08:40:58;;;;;;;;;;;;;;;;;;5057164;28;19909;-45
2022/05/06 08:43:23;;;;;;;;;;;;;;;;;;5057173;28;19920;-44
2022/05/06 08:51:16;;;;;;;;;;;;;;;;;;5057017;28;19976;-44
2022/05/06 08:53:41;;;;;;;;;;;;;;;;;;5056851;28;19952;-44
2022/05/06 08:56:06;;;;;;;;;;;;;;;;;;5056449;28;19964;-45
2022/05/06 08:58:34;;;;;;;;;;;;;;;;;;5056685;28;19908;-43
2022/05/06 09:00:59;;;;;;;;;;;;;;;;;;5056883;28;19909;-43
2022/05/06 09:03:24;;;;;;;;;;;;;;;;;;5056766;28;19916;-44
2022/05/06 09:05:49;;;;;;;;;;;;;;;;;;5056324;28;19913;-46
2022/05/06 09:08:14;;;;;;;;;;;;;;;;;;5056535;28;19954;-45
2022/05/06 09:10:39;;;;;;;;;;;;;;;;;;5056463;28;19909;-44
2022/05/06 09:13:04;;;;;;;;;;;;;;;;;;5056398;28;20253;-43
2022/05/06 09:18:13;;;;;;;;;;;;;;;;;;5056564;28;19919;-44
2022/05/06 09:20:39;;;;;;;;;;;;;;;;;;5056278;28;20360;-45
2022/05/06 09:23:04;;;;;;;;;;;;;;;;;;5056410;28;19909;-44
2022/05/06 09:25:29;;;;;;;;;;;;;;;;;;5055910;28;19913;-44
2022/05/06 09:27:54;;;;;;;;;;;;;;;;;;5056203;28;19908;-44
2022/05/06 09:30:19;;;;;;;;;;;;;;;;;;5055460;28;19927;-44
2022/05/06 09:32:45;;;;;;;;;;;;;;;;;;5055746;28;19932;-44
2022/05/06 09:35:10;;;;;;;;;;;;;;;;;;5055651;28;19970;-45
2022/05/06 09:37:35;;;;;;;;;;;;;;;;;;5056067;28;19913;-44
2022/05/06 09:40:00;;;;;;;;;;;;;;;;;;5053428;28;19982;-44
2022/05/06 09:42:25;;;;;;;;;;;;;;;;;;5056052;28;19951;-44
2022/05/06 09:44:50;;;;;;;;;;;;;;;;;;5055489;28;19920;-44
2022/05/06 09:47:15;;;;;;;;;;;;;;;;;;5055825;28;19909;-44
2022/05/06 09:49:40;;;;;;;;;;;;;;;;;;5055778;28;19909;-44
2022/05/06 09:52:05;;;;;;;;;;;;;;;;;;5055589;28;19905;-44
2022/05/06 09:54:31;;;;;;;;;;;;;;;;;;5055317;28;19935;-44
2022/05/06 09:56:56;;;;;;;;;;;;;;;;;;5055596;28;19913;-45
2022/05/06 09:59:21;;;;;;;;;;;;;;;;;;5055680;28;20260;-46
2022/05/06 10:01:47;;;;;;;;;;;;;;;;;;5055539;28;20020;-45
2022/05/06 10:04:12;;;;;;;;;;;;;;;;;;5055228;28;20003;-44
2022/05/06 10:06:37;;;;;;;;;;;;;;;;;;5055688;28;19912;-44
2022/05/06 10:09:02;;;;;;;;;;;;;;;;;;5055443;28;19909;-44
2022/05/06 10:11:28;;;;;;;;;;;;;;;;;;5055317;28;20352;-45
2022/05/06 10:13:57;;;;;;;;;;;;;;;;;;5051029;28;19917;-44
2022/05/06 10:16:23;;;;;;;;;;;;;;;;;;5055326;28;20015;-44
2022/05/06 10:18:48;;;;;;;;;;;;;;;;;;5055250;28;20386;-44
2022/05/06 10:21:13;;;;;;;;;;;;;;;;;;5055122;28;20405;-44
2022/05/06 10:23:38;;;;;;;;;;;;;;;;;;5054915;28;20017;-44
2022/05/06 10:26:03;;;;;;;;;;;;;;;;;;5054820;28;19952;-45
2022/05/06 10:33:56;;;;;;;;;;;;;;;;;;5055031;28;20444;-45
2022/05/06 10:36:21;;;;;;;;;;;;;;;;;;5054729;28;19994;-44
2022/05/06 10:38:46;;;;;;;;;;;;;;;;;;5055007;28;19999;-46
2022/05/06 10:41:12;;;;;;;;;;;;;;;;;;5054883;28;20003;-44
2022/05/06 10:43:37;;;;;;;;;;;;;;;;;;5054728;28;19909;-45
2022/05/06 10:46:02;;;;;;;;;;;;;;;;;;5054456;28;20378;-45
2022/05/06 10:48:27;;;;;;;;;;;;;;;;;;5054860;28;20267;-44
2022/05/06 10:50:53;;;;;;;;;;;;;;;;;;5054679;28;19908;-44
2022/05/06 10:53:18;;;;;;;;;;;;;;;;;;5054819;28;19908;-45
2022/05/06 10:55:43;;;;;;;;;;;;;;;;;;5053998;28;19925;-44
2022/05/06 10:58:08;;;;;;;;;;;;;;;;;;5054691;28;19909;-44
2022/05/06 11:00:37;;;;;;;;;;;;;;;;;;5054605;28;20022;-44
2022/05/06 11:03:02;;;;;;;;;;;;;;;;;;5054564;28;19958;-44
2022/05/06 11:05:29;;;;;;;;;;;;;;;;;;5054358;28;20011;-44
2022/05/06 11:07:54;;;;;;;;;;;;;;;;;;5054630;28;19915;-44
2022/05/06 11:10:19;;;;;;;;;;;;;;;;;;5054326;28;20015;-45
2022/05/06 11:12:44;;;;;;;;;;;;;;;;;;5054407;28;20004;-44
2022/05/06 11:15:09;;;;;;;;;;;;;;;;;;5053908;28;20283;-45
2022/05/06 11:17:34;;;;;;;;;;;;;;;;;;5054480;28;19952;-44
2022/05/06 11:20:00;;;;;;;;;;;;;;;;;;5054343;28;19912;-45
2022/05/06 11:22:25;;;;;;;;;;;;;;;;;;5054363;28;19919;-44
2022/05/06 11:24:50;;;;;;;;;;;;;;;;;;5054278;28;19970;-45
2022/05/06 11:27:15;;;;;;;;;;;;;;;;;;5054391;28;20334;-44
2022/05/06 11:29:40;;;;;;;;;;;;;;;;;;5054136;28;19924;-44
2022/05/06 11:32:05;;;;;;;;;;;;;;;;;;5054183;28;19920;-45
2022/05/06 11:34:31;;;;;;;;;;;;;;;;;;5054081;28;19909;-46
2022/05/06 11:36:56;;;;;;;;;;;;;;;;;;5053943;28;19913;-45
2022/05/06 11:39:21;;;;;;;;;;;;;;;;;;5054134;28;20421;-45
2022/05/06 11:41:46;;;;;;;;;;;;;;;;;;5054040;28;19909;-46
2022/05/06 11:47:26;;;;;;;;;;;;;;;;;;5054219;28;20449;-44
2022/05/06 11:49:40;;;;;;;;;;;;;;;;;;5054181;28;20469;-44
2022/05/06 11:52:05;;;;;;;;;;;;;;;;;;5054081;28;19912;-44
2022/05/06 11:54:30;;;;;;;;;;;;;;;;;;5055442;28;19909;-45
2022/05/06 11:56:55;;;;;;;;;;;;;;;;;;5057303;28;19917;-44
2022/05/06 11:59:20;;;;;;;;;;;;;;;;;;5057904;28;19916;-45
2022/05/06 12:01:45;;;;;;;;;;;;;;;;;;5057972;28;19916;-43
2022/05/06 12:04:11;;;;;;;;;;;;;;;;;;5046137;28;19921;-45
2022/05/06 12:06:40;;;;;;;;;;;;;;;;;;5054248;28;19935;-44
2022/05/06 12:09:06;;;;;;;;;;;;;;;;;;5057462;28;20004;-44
2022/05/06 12:11:31;;;;;;;;;;;;;;;;;;5057705;28;20496;-44
2022/05/06 12:13:56;;;;;;;;;;;;;;;;;;5057592;28;20383;-45
2022/05/06 12:16:21;;;;;;;;;;;;;;;;;;5057080;28;20410;-46
2022/05/06 12:18:46;;;;;;;;;;;;;;;;;;5057602;28;19944;-45
2022/05/06 12:21:11;;;;;;;;;;;;;;;;;;5057545;28;19949;-45
2022/05/06 12:23:36;;;;;;;;;;;;;;;;;;5057437;28;19953;-44
2022/05/06 12:26:01;;;;;;;;;;;;;;;;;;5057161;28;19952;-44
2022/05/06 12:28:28;;;;;;;;;;;;;;;;;;5056052;28;19948;-45
2022/05/06 12:30:53;;;;;;;;;;;;;;;;;;5057427;28;19913;-45
2022/05/06 12:33:18;;;;;;;;;;;;;;;;;;5057322;28;19909;-44
2022/05/06 12:35:43;;;;;;;;;;;;;;;;;;5056952;28;19925;-44
2022/05/06 12:38:08;;;;;;;;;;;;;;;;;;5057159;28;19916;-44
2022/05/06 12:40:33;;;;;;;;;;;;;;;;;;5057191;28;20356;-44
2022/05/06 12:42:58;;;;;;;;;;;;;;;;;;5057105;28;20260;-45
2022/05/06 12:45:23;;;;;;;;;;;;;;;;;;5056772;28;19920;-44
2022/05/06 12:50:38;;;;;;;;;;;;;;;;;;5035054;28;19984;-44
2022/05/06 12:53:03;;;;;;;;;;;;;;;;;;5035025;28;20000;-44
2022/05/06 12:55:29;;;;;;;;;;;;;;;;;;5034602;28;20082;-45
2022/05/06 12:57:55;;;;;;;;;;;;;;;;;;5034971;28;19909;-43
2022/05/06 13:00:21;;;;;;;;;;;;;;;;;;5034895;28;19916;-45
2022/05/06 13:02:46;;;;;;;;;;;;;;;;;;5054585;28;19916;-44
2022/05/06 13:05:11;;;;;;;;;;;;;;;;;;5056266;28;20300;-44
2022/05/06 13:07:36;;;;;;;;;;;;;;;;;;5055544;28;19908;-44
2022/05/06 13:10:01;;;;;;;;;;;;;;;;;;5056756;28;19909;-45
2022/05/06 13:12:26;;;;;;;;;;;;;;;;;;5056399;28;19909;-45
2022/05/06 13:14:51;;;;;;;;;;;;;;;;;;5056406;28;19995;-45
2022/05/06 13:17:17;;;;;;;;;;;;;;;;;;5056425;28;19913;-46
2022/05/06 13:19:42;;;;;;;;;;;;;;;;;;5056458;28;19975;-45
2022/05/06 13:22:07;;;;;;;;;;;;;;;;;;5056495;28;20003;-44
2022/05/06 13:24:32;;;;;;;;;;;;;;;;;;5056270;28;20047;-46
2022/05/06 13:26:57;;;;;;;;;;;;;;;;;;5056334;28;20483;-46
2022/05/06 13:29:22;;;;;;;;;;;;;;;;;;5056645;22;20407;-45
2022/05/06 13:31:47;;;;;;;;;;;;;;;;;;5036366;28;19910;-46
2022/05/06 13:34:12;;;;;;;;;;;;;;;;;;5036323;28;20258;-44
2022/05/06 13:36:38;;;;;;;;;;;;;;;;;;5035890;28;20357;-45
2022/05/06 13:39:03;;;;;;;;;;;;;;;;;;5036201;28;19917;-44
2022/05/06 13:41:28;;;;;;;;;;;;;;;;;;5036034;28;19963;-43
2022/05/06 13:43:53;;;;;;;;;;;;;;;;;;5036390;28;19915;-43
2022/05/06 13:46:18;;;;;;;;;;;;;;;;;;5035853;28;19963;-43
2022/05/06 13:48:43;;;;;;;;;;;;;;;;;;5035980;28;20330;-44
2022/05/06 13:51:09;;;;;;;;;;;;;;;;;;5035870;28;20311;-43
2022/05/06 13:53:34;;;;;;;;;;;;;;;;;;5035901;28;19963;-43
2022/05/06 14:01:26;;;;;;;;;;;;;;;;;;5035854;28;19971;-43
2022/05/06 14:03:51;;;;;;;;;;;;;;;;;;5035788;28;19909;-43
2022/05/06 14:06:17;;;;;;;;;;;;;;;;;;5035279;28;19920;-43
2022/05/06 14:08:42;;;;;;;;;;;;;;;;;;5035804;28;19920;-43
2022/05/06 14:11:07;;;;;;;;;;;;;;;;;;5035560;28;19909;-44
2022/05/06 14:13:32;;;;;;;;;;;;;;;;;;5053508;28;20313;-43
2022/05/06 14:15:57;;;;;;;;;;;;;;;;;;5055147;28;19984;-43
2022/05/06 14:18:22;;;;;;;;;;;;;;;;;;5054789;28;19973;-43
2022/05/06 14:20:47;;;;;;;;;;;;;;;;;;5055267;28;20006;-43
2022/05/06 14:23:12;;;;;;;;;;;;;;;;;;5055410;28;19916;-43
2022/05/06 14:25:37;;;;;;;;;;;;;;;;;;5054821;28;19912;-43
2022/05/06 14:28:03;;;;;;;;;;;;;;;;;;5055149;28;19916;-43
2022/05/06 14:30:28;;;;;;;;;;;;;;;;;;5054788;28;19921;-43
2022/05/06 14:32:53;;;;;;;;;;;;;;;;;;5055010;28;19909;-44
2022/05/06 14:35:21;;;;;;;;;;;;;;;;;;5054630;28;19920;-43
2022/05/06 14:37:48;;;;;;;;;;;;;;;;;;5055033;28;19916;-43
2022/05/06 14:40:13;;;;;;;;;;;;;;;;;;5055045;28;19913;-45
2022/05/06 14:42:38;;;;;;;;;;;;;;;;;;5054813;28;20360;-43
2022/05/06 14:45:04;;;;;;;;;;;;;;;;;;5054525;28;19913;-43
2022/05/06 14:47:29;;;;;;;;;;;;;;;;;;5054991;28;19909;-43
2022/05/06 14:49:54;;;;;;;;;;;;;;;;;;5054771;28;19909;-44
2022/05/06 14:52:23;;;;;;;;;;;;;;;;;;5054716;28;19905;-43
2022/05/06 14:54:48;;;;;;;;;;;;;;;;;;5054465;28;19958;-43
2022/05/06 14:57:14;;;;;;;;;;;;;;;;;;5054534;28;20348;-43
2022/05/06 14:59:39;;;;;;;;;;;;;;;;;;5053232;28;20267;-43
2022/05/06 15:02:04;;;;;;;;;;;;;;;;;;5054548;28;19917;-43
2022/05/06 15:04:29;;;;;;;;;;;;;;;;;;5054239;28;19951;-44
2022/05/06 15:06:54;;;;;;;;;;;;;;;;;;5054558;28;20364;-43
2022/05/06 15:09:22;;;;;;;;;;;;;;;;;;5054490;28;19915;-43
2022/05/06 15:11:47;;;;;;;;;;;;;;;;;;5054548;28;20344;-43
2022/05/06 15:14:12;;;;;;;;;;;;;;;;;;5054256;28;19963;-44
2022/05/06 15:16:37;;;;;;;;;;;;;;;;;;5054015;28;19971;-44
2022/05/06 15:21:46;;;;;;;;;;;;;;;;;;5050726;28;19920;-43
2022/05/06 15:24:11;;;;;;;;;;;;;;;;;;5054288;28;20283;-43
2022/05/06 15:26:36;;;;;;;;;;;;;;;;;;5053426;28;19919;-44
2022/05/06 15:29:01;;;;;;;;;;;;;;;;;;5056582;28;20002;-44
2022/05/06 15:31:28;;;;;;;;;;;;;;;;;;5058689;28;19917;-44
2022/05/06 15:33:53;;;;;;;;;;;;;;;;;;5058503;28;19908;-44
2022/05/06 15:36:18;;;;;;;;;;;;;;;;;;5058051;28;19923;-43
2022/05/06 15:38:43;;;;;;;;;;;;;;;;;;5058344;28;19911;-44
2022/05/06 15:41:10;;;;;;;;;;;;;;;;;;5058270;28;19954;-44
2022/05/06 15:43:36;;;;;;;;;;;;;;;;;;5058153;28;19935;-44
2022/05/06 15:46:01;;;;;;;;;;;;;;;;;;5057976;28;19967;-44
2022/05/06 15:48:26;;;;;;;;;;;;;;;;;;5058023;28;20364;-45
2022/05/06 15:50:51;;;;;;;;;;;;;;;;;;5058185;28;19908;-43
2022/05/06 15:53:17;;;;;;;;;;;;;;;;;;5057978;28;19909;-44
2022/05/06 15:55:42;;;;;;;;;;;;;;;;;;5057642;28;19952;-45
2022/05/06 15:58:07;;;;;;;;;;;;;;;;;;5058040;28;19948;-44
2022/05/06 16:00:32;;;;;;;;;;;;;;;;;;5056633;28;19909;-44
2022/05/06 16:02:57;;;;;;;;;;;;;;;;;;5057735;28;20371;-45
2022/05/06 16:05:22;;;;;;;;;;;;;;;;;;5057619;28;20334;-43
2022/05/06 16:07:47;;;;;;;;;;;;;;;;;;5057923;28;19909;-44
2022/05/06 16:10:12;;;;;;;;;;;;;;;;;;5057861;28;19912;-44
2022/05/06 16:12:38;;;;;;;;;;;;;;;;;;5057900;28;20364;-43
2022/05/06 16:15:18;;;;;;;;;;;;;;;;;;5057217;28;19948;-44
2022/05/06 16:17:43;;;;;;;;;;;;;;;;;;5057490;28;19915;-44
2022/05/06 16:20:08;;;;;;;;;;;;;;;;;;5057438;28;20350;-45
2022/05/06 16:22:34;;;;;;;;;;;;;;;;;;5057568;28;19932;-44
2022/05/06 16:24:59;;;;;;;;;;;;;;;;;;5057213;28;19966;-44
2022/05/06 16:27:24;;;;;;;;;;;;;;;;;;5057321;28;19924;-45
2022/05/06 16:29:49;;;;;;;;;;;;;;;;;;5057429;28;19976;-46
2022/05/06 16:32:14;;;;;;;;;;;;;;;;;;5057691;28;20058;-44
2022/05/06 16:37:25;;;;;;;;;;;;;;;;;;5058076;28;19920;-44
2022/05/06 16:39:50;;;;;;;;;;;;;;;;;;5055206;28;19913;-46
2022/05/06 16:42:16;;;;;;;;;;;;;;;;;;5057376;28;20369;-44
2022/05/06 16:44:41;;;;;;;;;;;;;;;;;;5057318;28;19916;-43
2022/05/06 16:47:06;;;;;;;;;;;;;;;;;;5056879;28;19912;-43
2022/05/06 16:49:32;;;;;;;;;;;;;;;;;;5068673;28;19912;-43
2022/05/06 16:51:57;;;;;;;;;;;;;;;;;;5092923;28;19908;-44
2022/05/06 16:54:22;;;;;;;;;;;;;;;;;;5077009;28;20331;-44
2022/05/06 16:56:47;;;;;;;;;;;;;;;;;;5076859;28;19913;-44
2022/05/06 16:59:12;;;;;;;;;;;;;;;;;;5092460;28;19909;-47
2022/05/06 17:01:38;;;;;;;;;;;;;;;;;;5062020;28;19913;-44
2022/05/06 17:04:03;;;;;;;;;;;;;;;;;;5055100;28;19917;-44
2022/05/06 17:06:28;;;;;;;;;;;;;;;;;;5056807;28;20276;-48
2022/05/06 17:08:53;;;;;;;;;;;;;;;;;;5056707;28;19909;-44
2022/05/06 17:11:19;;;;;;;;;;;;;;;;;;5055969;28;19923;-44
2022/05/06 17:13:46;;;;;;;;;;;;;;;;;;5056595;28;19959;-44
2022/05/06 17:16:12;;;;;;;;;;;;;;;;;;5056820;28;19920;-44
2022/05/06 17:18:37;;;;;;;;;;;;;;;;;;5056500;28;19991;-44
2022/05/06 17:21:02;;;;;;;;;;;;;;;;;;5056852;28;19913;-43
2022/05/06 17:23:27;;;;;;;;;;;;;;;;;;5056403;28;20360;-44
2022/05/06 17:25:55;;;;;;;;;;;;;;;;;;5056332;28;19909;-44
2022/05/06 17:28:20;;;;;;;;;;;;;;;;;;5056360;28;19909;-44
2022/05/06 17:30:45;;;;;;;;;;;;;;;;;;5054864;28;19947;-46
2022/05/06 17:33:10;;;;;;;;;;;;;;;;;;5056122;28;19916;-44